Time;durP1;ratioP1;P1;durP2;ratioP2;P2;SDS_P1;SDS_P2;PMS_P1;PMS_P2;Temp;Humidity;BMP_temperature;BMP_pressure;BME280_temperature;BME280_humidity;BME280_pressure;Samples;Min_cycle;Max_cycle;Signal;HPM_P1;HPM_P2
2022/08/03 00:01:34;;;;;;;5.53;3.35;;;29.70;1.00;;;;;;5113071;28;20119;-49
2022/08/03 00:04:00;;;;;;;5.70;2.92;;;29.60;1.00;;;;;;5095617;28;20084;-50
2022/08/03 00:06:26;;;;;;;3.42;2.80;;;29.70;1.00;;;;;;5112212;28;20472;-47
2022/08/03 00:08:52;;;;;;;5.10;2.88;;;29.70;1.00;;;;;;5113645;28;20102;-45
2022/08/03 00:11:17;;;;;;;3.67;2.63;;;29.60;1.00;;;;;;5112611;28;20070;-45
2022/08/03 00:13:43;;;;;;;3.35;3.05;;;29.70;1.00;;;;;;5113608;28;20107;-46
2022/08/03 00:16:10;;;;;;;3.97;2.75;;;29.60;1.00;;;;;;5107644;28;20035;-49
2022/08/03 00:18:36;;;;;;;4.22;2.20;;;29.60;1.00;;;;;;5113507;28;20120;-46
2022/08/03 00:21:03;;;;;;;4.35;2.80;;;29.50;1.00;;;;;;5112585;28;20020;-48
2022/08/03 00:23:29;;;;;;;4.03;2.90;;;29.50;1.00;;;;;;5110736;28;20034;-49
2022/08/03 00:25:55;;;;;;;6.63;2.67;;;29.50;1.00;;;;;;5111999;28;20027;-48
2022/08/03 00:28:21;;;;;;;3.45;2.70;;;29.50;1.00;;;;;;5113278;28;20113;-47
2022/08/03 00:30:47;;;;;;;4.75;2.90;;;29.50;1.00;;;;;;5106421;28;20028;-48
2022/08/03 00:33:12;;;;;;;4.35;3.15;;;29.50;1.00;;;;;;5112502;28;20020;-45
2022/08/03 00:35:38;;;;;;;3.42;3.13;;;29.50;1.00;;;;;;5111265;28;20043;-45
2022/08/03 00:38:04;;;;;;;11.82;2.75;;;29.40;1.00;;;;;;5113194;28;20027;-45
2022/08/03 00:40:30;;;;;;;4.05;2.95;;;29.40;1.00;;;;;;5112270;28;20357;-44
2022/08/03 00:43:01;;;;;;;4.50;2.92;;;29.40;1.00;;;;;;5112852;28;20051;-45
2022/08/03 00:45:31;;;;;;;3.22;2.70;;;29.40;1.00;;;;;;5112141;28;20476;-45
2022/08/03 00:47:58;;;;;;;3.47;2.55;;;29.30;1.00;;;;;;5112852;28;20038;-45
2022/08/03 00:50:25;;;;;;;3.97;2.97;;;29.30;1.00;;;;;;5112069;28;20377;-46
2022/08/03 00:52:52;;;;;;;3.08;2.83;;;29.30;1.00;;;;;;5112757;28;20031;-45
2022/08/03 00:55:18;;;;;;;4.32;2.80;;;29.30;1.00;;;;;;5111282;28;20027;-45
2022/08/03 00:57:45;;;;;;;2.70;2.38;;;29.30;1.00;;;;;;5103706;28;20038;-44
2022/08/03 01:00:12;;;;;;;4.55;2.45;;;29.30;1.00;;;;;;5111553;28;20027;-46
2022/08/03 01:02:38;;;;;;;3.22;2.15;;;29.30;1.00;;;;;;5106405;28;20044;-45
2022/08/03 01:05:04;;;;;;;2.60;2.30;;;29.20;1.00;;;;;;5092130;28;20082;-44
2022/08/03 01:07:36;;;;;;;2.53;2.33;;;29.20;1.00;;;;;;5108961;28;20492;-44
2022/08/03 01:10:20;;;;;;;4.50;2.47;;;29.20;1.00;;;;;;5112560;28;20036;-45
2022/08/03 01:13:02;;;;;;;4.50;2.63;;;29.00;1.00;;;;;;5097132;28;20031;-44
2022/08/03 01:15:27;;;;;;;2.30;2.20;;;28.90;1.00;;;;;;5091864;28;20034;-45
2022/08/03 01:18:19;;;;;;;5.90;2.72;;;29.10;1.00;;;;;;5093334;28;20024;-46
2022/08/03 01:20:50;;;;;;;3.97;2.58;;;29.10;1.00;;;;;;5099052;28;20043;-46
2022/08/03 01:23:31;;;;;;;3.55;2.40;;;29.10;1.00;;;;;;5090999;28;20027;-45
2022/08/03 01:26:08;;;;;;;5.55;2.10;;;29.10;1.00;;;;;;5099382;28;20020;-45
2022/08/03 01:29:02;;;;;;;3.47;2.63;;;29.00;1.00;;;;;;5111710;28;20096;-44
2022/08/03 01:31:56;;;;;;;4.63;2.92;;;29.00;1.00;;;;;;5109901;28;20027;-45
2022/08/03 01:34:23;;;;;;;5.32;2.97;;;29.00;1.00;;;;;;5110573;28;20027;-45
2022/08/03 01:36:55;;;;;;;5.57;3.22;;;29.00;1.00;;;;;;5109857;28;20047;-45
2022/08/03 01:39:23;;;;;;;4.30;2.58;;;29.00;1.00;;;;;;5111469;28;20043;-45
2022/08/03 01:41:58;;;;;;;2.60;2.40;;;29.00;1.00;;;;;;5109781;28;20497;-44
2022/08/03 01:44:26;;;;;;;4.68;2.92;;;28.90;1.00;;;;;;5111481;28;20027;-45
2022/08/03 01:46:53;;;;;;;3.60;2.78;;;29.00;1.00;;;;;;5110612;28;20590;-45
2022/08/03 01:49:18;;;;;;;3.15;2.88;;;28.90;1.00;;;;;;5110823;28;20252;-45
2022/08/03 01:51:47;;;;;;;4.00;2.05;;;28.90;1.00;;;;;;5110378;28;20106;-49
2022/08/03 01:54:14;;;;;;;4.80;2.20;;;28.90;1.00;;;;;;5111204;28;20024;-46
2022/08/03 01:56:41;;;;;;;4.32;2.60;;;28.90;1.00;;;;;;5110425;28;20114;-49
2022/08/03 01:59:10;;;;;;;3.85;2.90;;;28.90;1.00;;;;;;5110303;28;20388;-46
2022/08/03 02:01:37;;;;;;;4.78;2.33;;;28.80;1.00;;;;;;5106543;28;20488;-49
2022/08/03 02:04:04;;;;;;;4.85;2.70;;;28.80;1.00;;;;;;5111308;28;20051;-47
2022/08/03 02:06:32;;;;;;;4.05;2.80;;;28.80;1.00;;;;;;5102319;28;20028;-46
2022/08/03 02:08:59;;;;;;;3.38;2.38;;;28.70;1.00;;;;;;5110202;28;20094;-46
2022/08/03 02:11:25;;;;;;;2.47;2.28;;;28.80;1.00;;;;;;5110517;28;20066;-47
2022/08/03 02:13:52;;;;;;;3.63;2.20;;;28.80;1.00;;;;;;5111071;28;20107;-45
2022/08/03 02:16:18;;;;;;;5.82;2.50;;;28.80;1.00;;;;;;5103084;28;20028;-44
2022/08/03 02:18:46;;;;;;;4.40;2.50;;;28.70;1.00;;;;;;5106304;28;20056;-45
2022/08/03 02:21:13;;;;;;;5.35;2.45;;;28.70;1.00;;;;;;5110371;28;20430;-46
2022/08/03 02:23:39;;;;;;;4.93;2.58;;;28.70;1.00;;;;;;5109981;28;20036;-48
2022/08/03 02:26:14;;;;;;;2.60;2.40;;;28.70;1.00;;;;;;5110133;28;20027;-47
2022/08/03 02:28:44;;;;;;;3.13;2.83;;;28.70;1.00;;;;;;5100544;28;20127;-46
2022/08/03 02:31:16;;;;;;;5.40;2.60;;;28.60;1.00;;;;;;5108703;28;20110;-44
2022/08/03 02:33:48;;;;;;;2.42;2.22;;;28.60;1.00;;;;;;5110904;28;20028;-45
2022/08/03 02:36:18;;;;;;;3.72;2.53;;;28.60;1.00;;;;;;5109741;28;20424;-46
2022/08/03 02:38:48;;;;;;;3.90;2.47;;;28.60;1.00;;;;;;5110912;28;20012;-45
2022/08/03 02:41:16;;;;;;;3.50;2.45;;;28.50;1.00;;;;;;5109939;28;20096;-44
2022/08/03 02:43:46;;;;;;;3.20;2.40;;;28.50;1.00;;;;;;5110506;28;20504;-44
2022/08/03 02:46:13;;;;;;;3.88;2.70;;;28.50;1.00;;;;;;5110300;28;20028;-46
2022/08/03 02:48:41;;;;;;;4.03;2.28;;;28.50;1.00;;;;;;5114586;28;20024;-44
2022/08/03 02:51:08;;;;;;;2.90;2.60;;;28.50;1.00;;;;;;5113578;28;20038;-44
2022/08/03 02:53:34;;;;;;;4.05;2.50;;;28.50;1.00;;;;;;5114652;28;20024;-46
2022/08/03 02:56:02;;;;;;;2.28;2.15;;;28.50;1.00;;;;;;5112266;28;20121;-45
2022/08/03 02:58:30;;;;;;;3.00;2.70;;;28.50;1.00;;;;;;5114428;28;20012;-45
2022/08/03 03:00:56;;;;;;;3.10;2.38;;;28.40;1.00;;;;;;5113582;28;20787;-45
2022/08/03 03:03:23;;;;;;;4.95;2.65;;;28.40;1.00;;;;;;5114241;28;20083;-45
2022/08/03 03:05:49;;;;;;;5.18;2.28;;;28.40;1.00;;;;;;5113448;28;20078;-44
2022/08/03 03:08:17;;;;;;;3.60;2.70;;;28.40;1.00;;;;;;5114357;28;20051;-44
2022/08/03 03:10:44;;;;;;;4.05;2.53;;;28.40;1.00;;;;;;5114141;28;20073;-45
2022/08/03 03:13:12;;;;;;;2.65;2.45;;;28.40;1.00;;;;;;5109969;28;20085;-48
2022/08/03 03:15:40;;;;;;;4.70;2.67;;;28.40;1.00;;;;;;5114793;28;20035;-47
2022/08/03 03:18:08;;;;;;;7.75;2.45;;;28.40;1.00;;;;;;5114468;28;20097;-46
2022/08/03 03:20:36;;;;;;;2.80;2.10;;;28.40;1.00;;;;;;5114726;28;20016;-44
2022/08/03 03:23:02;;;;;;;3.05;2.63;;;28.30;1.00;;;;;;5113666;28;20031;-45
2022/08/03 03:25:32;;;;;;;6.68;3.10;;;28.30;1.00;;;;;;5110308;28;20344;-49
2022/08/03 03:28:01;;;;;;;4.63;2.60;;;28.20;1.00;;;;;;5113814;28;20031;-50
2022/08/03 03:30:27;;;;;;;2.30;2.10;;;28.20;1.00;;;;;;5114571;28;20041;-45
2022/08/03 03:32:53;;;;;;;3.13;2.53;;;28.20;1.00;;;;;;5113397;28;20120;-48
2022/08/03 03:35:19;;;;;;;4.13;2.40;;;28.20;1.00;;;;;;5096046;28;20082;-45
2022/08/03 03:37:45;;;;;;;3.28;2.50;;;28.20;1.00;;;;;;5113638;28;20051;-45
2022/08/03 03:40:11;;;;;;;5.00;2.92;;;28.20;1.00;;;;;;5114332;28;20400;-45
2022/08/03 03:42:37;;;;;;;4.47;2.53;;;28.30;1.00;;;;;;5099432;28;20056;-46
2022/08/03 03:45:06;;;;;;;5.70;3.00;;;28.30;1.00;;;;;;5114258;28;20023;-44
2022/08/03 03:47:34;;;;;;;4.05;2.70;;;28.20;1.00;;;;;;5099590;28;20119;-44
2022/08/03 03:50:01;;;;;;;2.53;2.33;;;28.20;1.00;;;;;;5113918;28;20360;-45
2022/08/03 03:52:27;;;;;;;3.20;2.35;;;28.10;1.00;;;;;;5112507;28;20055;-47
2022/08/03 03:54:52;;;;;;;4.72;2.70;;;28.20;1.00;;;;;;5111445;28;20066;-45
2022/08/03 03:57:18;;;;;;;4.50;2.40;;;28.10;1.00;;;;;;5104890;28;20045;-46
2022/08/03 03:59:44;;;;;;;4.63;2.58;;;28.10;1.00;;;;;;5094689;28;20099;-44
2022/08/03 04:02:11;;;;;;;2.83;2.25;;;28.10;1.00;;;;;;5112393;28;20439;-45
2022/08/03 04:13:11;;;;;;;4.03;2.67;;;28.00;1.00;;;;;;5100967;28;20035;-45
2022/08/03 04:15:38;;;;;;;4.18;2.55;;;28.10;1.00;;;;;;5111860;28;20124;-44
2022/08/03 04:18:07;;;;;;;5.07;2.63;;;28.00;1.00;;;;;;5112032;28;20031;-45
2022/08/03 04:20:36;;;;;;;5.53;2.80;;;28.00;1.00;;;;;;5105124;28;20048;-45
2022/08/03 04:23:02;;;;;;;5.53;2.95;;;28.00;1.00;;;;;;5095891;28;20028;-45
2022/08/03 04:25:32;;;;;;;4.32;2.50;;;28.00;1.00;;;;;;5113485;28;20020;-45
2022/08/03 04:28:00;;;;;;;3.30;2.40;;;27.90;1.00;;;;;;5103921;28;20027;-46
2022/08/03 04:30:27;;;;;;;2.80;2.30;;;27.90;1.00;;;;;;5113540;28;20114;-45
2022/08/03 04:32:55;;;;;;;3.40;2.72;;;27.90;1.00;;;;;;5110566;28;20090;-45
2022/08/03 04:35:23;;;;;;;4.43;2.88;;;27.90;1.00;;;;;;5093863;28;20051;-46
2022/08/03 04:37:51;;;;;;;3.75;2.58;;;28.00;1.00;;;;;;5098410;28;20065;-44
2022/08/03 04:40:36;;;;;;;4.70;2.85;;;28.00;1.00;;;;;;5078380;28;20036;-45
2022/08/03 04:43:03;;;;;;;3.88;2.53;;;28.00;1.00;;;;;;5101654;28;20035;-44
2022/08/03 04:45:30;;;;;;;3.75;3.10;;;28.00;1.00;;;;;;5098442;28;20423;-45
2022/08/03 04:47:57;;;;;;;8.05;2.78;;;28.00;1.00;;;;;;5112223;28;20023;-44
2022/08/03 04:50:23;;;;;;;2.83;2.60;;;28.00;1.00;;;;;;5112472;28;20110;-44
2022/08/03 04:52:49;;;;;;;3.22;2.65;;;28.00;1.00;;;;;;5112200;28;20023;-45
2022/08/03 04:55:31;;;;;;;7.90;2.97;;;28.00;1.00;;;;;;5112693;28;20496;-49
2022/08/03 04:57:58;;;;;;;2.75;2.55;;;28.00;1.00;;;;;;5112126;28;20358;-46
2022/08/03 05:00:25;;;;;;;5.38;2.78;;;28.00;1.00;;;;;;5112641;28;20020;-44
2022/08/03 05:02:52;;;;;;;6.07;2.80;;;28.00;1.00;;;;;;5111910;28;20098;-45
2022/08/03 05:05:18;;;;;;;4.25;2.38;;;28.00;1.00;;;;;;5112843;28;20043;-45
2022/08/03 05:07:44;;;;;;;3.03;2.67;;;28.00;1.00;;;;;;5111805;28;20542;-44
2022/08/03 05:10:11;;;;;;;2.85;2.65;;;28.00;1.00;;;;;;5112214;28;20024;-44
2022/08/03 05:12:37;;;;;;;5.03;2.90;;;28.00;1.00;;;;;;5111517;28;20027;-45
2022/08/03 05:15:03;;;;;;;5.35;2.97;;;28.00;1.00;;;;;;5106507;28;20055;-45
2022/08/03 05:17:29;;;;;;;4.68;2.70;;;28.00;1.00;;;;;;5111608;28;20027;-44
2022/08/03 05:19:55;;;;;;;5.20;2.53;;;28.00;1.00;;;;;;5111362;28;20117;-44
2022/08/03 05:22:21;;;;;;;2.58;2.38;;;28.00;1.00;;;;;;5111393;28;20465;-48
2022/08/03 05:24:47;;;;;;;3.95;2.45;;;28.00;1.00;;;;;;5112146;28;20027;-45
2022/08/03 05:27:18;;;;;;;3.17;2.63;;;28.00;1.00;;;;;;5111561;28;20382;-45
2022/08/03 05:29:44;;;;;;;6.20;3.17;;;27.90;1.00;;;;;;5112196;28;20023;-46
2022/08/03 05:32:10;;;;;;;3.22;2.63;;;27.90;1.00;;;;;;5111219;28;20043;-45
2022/08/03 05:34:36;;;;;;;3.85;2.75;;;27.90;1.00;;;;;;5111914;28;20066;-44
2022/08/03 05:37:01;;;;;;;7.80;3.25;;;28.00;1.00;;;;;;5111183;28;20046;-44
2022/08/03 05:39:27;;;;;;;7.85;2.72;;;28.00;1.00;;;;;;5112566;28;20076;-44
2022/08/03 05:41:53;;;;;;;4.40;2.70;;;28.00;1.00;;;;;;5111362;28;20047;-45
2022/08/03 05:44:18;;;;;;;3.30;2.70;;;28.00;1.00;;;;;;5111954;28;20376;-44
2022/08/03 05:46:44;;;;;;;4.78;2.28;;;28.00;1.00;;;;;;5109729;28;20047;-44
2022/08/03 05:49:09;;;;;;;3.53;2.80;;;28.00;1.00;;;;;;5108967;28;20322;-46
2022/08/03 05:51:36;;;;;;;4.47;2.80;;;28.00;1.00;;;;;;5111151;28;20030;-47
2022/08/03 05:54:01;;;;;;;3.78;2.30;;;28.10;1.00;;;;;;5098457;28;20106;-45
2022/08/03 05:56:27;;;;;;;4.13;2.95;;;28.10;1.00;;;;;;5111894;28;20118;-46
2022/08/03 05:58:53;;;;;;;5.10;2.97;;;28.10;1.00;;;;;;5096859;28;20028;-46
2022/08/03 06:01:22;;;;;;;4.60;3.00;;;28.00;1.00;;;;;;5112137;28;20028;-47
2022/08/03 06:03:49;;;;;;;4.22;2.70;;;28.10;1.00;;;;;;5111154;28;20023;-45
2022/08/03 06:06:15;;;;;;;5.95;3.00;;;28.10;1.00;;;;;;5111740;28;20072;-48
2022/08/03 06:08:42;;;;;;;5.45;3.20;;;28.10;1.00;;;;;;5093175;28;20024;-45
2022/08/03 06:11:08;;;;;;;3.97;2.95;;;28.10;1.00;;;;;;5111739;28;20028;-45
2022/08/03 06:13:34;;;;;;;7.18;2.80;;;28.10;1.00;;;;;;5110887;28;20106;-44
2022/08/03 06:16:00;;;;;;;7.43;2.42;;;28.10;1.00;;;;;;5110872;28;20036;-45
2022/08/03 06:18:26;;;;;;;4.10;2.60;;;28.10;1.00;;;;;;5106290;28;20045;-49
2022/08/03 06:20:52;;;;;;;4.25;2.95;;;28.10;1.00;;;;;;5111635;28;20099;-46
2022/08/03 06:23:17;;;;;;;4.68;2.35;;;28.10;1.00;;;;;;5114025;28;20042;-47
2022/08/03 06:25:43;;;;;;;6.50;3.05;;;28.20;1.00;;;;;;5115814;28;20038;-49
2022/08/03 06:28:09;;;;;;;5.13;2.85;;;28.20;1.00;;;;;;5104946;28;20028;-48
2022/08/03 06:30:35;;;;;;;6.70;3.30;;;28.20;1.00;;;;;;5115649;28;20031;-48
2022/08/03 06:33:01;;;;;;;4.18;2.67;;;28.10;1.00;;;;;;5114832;28;20522;-45
2022/08/03 06:35:26;;;;;;;10.38;2.70;;;28.20;1.00;;;;;;5110305;28;20108;-45
2022/08/03 06:37:52;;;;;;;5.75;2.70;;;28.10;1.00;;;;;;5096404;28;20024;-47
2022/08/03 06:40:27;;;;;;;3.95;2.45;;;28.10;1.00;;;;;;5115433;28;20020;-47
2022/08/03 06:42:53;;;;;;;4.00;2.75;;;28.20;1.00;;;;;;5114084;28;20135;-45
2022/08/03 06:45:19;;;;;;;4.40;2.72;;;28.20;1.00;;;;;;5104131;28;20441;-50
2022/08/03 06:47:45;;;;;;;5.50;2.50;;;28.20;1.00;;;;;;5113904;28;20106;-45
2022/08/03 06:50:10;;;;;;;7.88;2.63;;;28.20;1.00;;;;;;5115145;28;20024;-46
2022/08/03 06:52:36;;;;;;;6.85;3.00;;;28.30;1.00;;;;;;5114745;28;20107;-48
2022/08/03 06:55:02;;;;;;;5.78;2.65;;;28.30;1.00;;;;;;5115277;28;20358;-45
2022/08/03 06:57:28;;;;;;;4.03;2.65;;;28.30;1.00;;;;;;5114165;28;20024;-46
2022/08/03 06:59:55;;;;;;;3.65;2.65;;;28.30;1.00;;;;;;5115056;28;20027;-45
2022/08/03 07:02:20;;;;;;;5.43;2.63;;;28.40;1.00;;;;;;5114217;28;20110;-46
2022/08/03 07:04:47;;;;;;;3.72;2.67;;;28.40;1.00;;;;;;5114948;28;20479;-44
2022/08/03 07:07:13;;;;;;;6.32;3.30;;;28.40;1.00;;;;;;5110359;28;20079;-46
2022/08/03 07:09:38;;;;;;;7.10;2.45;;;28.40;1.00;;;;;;5104092;28;20394;-45
2022/08/03 07:12:05;;;;;;;2.83;2.25;;;28.40;1.00;;;;;;5114123;28;20031;-44
2022/08/03 07:14:31;;;;;;;3.55;2.70;;;28.40;1.00;;;;;;5113969;28;20043;-46
2022/08/03 07:16:57;;;;;;;4.30;2.40;;;28.50;1.00;;;;;;5113972;28;20023;-45
2022/08/03 07:19:22;;;;;;;4.78;2.47;;;28.50;1.00;;;;;;5114693;28;20102;-45
2022/08/03 07:21:48;;;;;;;5.13;2.60;;;28.50;1.00;;;;;;5114537;28;20127;-45
2022/08/03 07:24:13;;;;;;;4.38;2.63;;;28.50;1.00;;;;;;5114161;28;20034;-44
2022/08/03 07:26:39;;;;;;;2.95;2.35;;;28.50;1.00;;;;;;5114842;28;20120;-46
2022/08/03 07:29:04;;;;;;;4.70;2.28;;;28.60;1.00;;;;;;5113701;28;20035;-45
2022/08/03 07:31:30;;;;;;;4.47;2.20;;;28.60;1.00;;;;;;5114543;28;20077;-45
2022/08/03 07:33:56;;;;;;;5.70;2.35;;;28.60;1.00;;;;;;5112309;28;20503;-45
2022/08/03 07:36:23;;;;;;;6.20;2.67;;;28.70;1.00;;;;;;5114155;28;20465;-45
2022/08/03 07:38:49;;;;;;;5.63;2.70;;;28.70;1.00;;;;;;5112671;28;20027;-48
2022/08/03 07:41:15;;;;;;;2.67;2.28;;;28.80;1.00;;;;;;5100604;28;20122;-45
2022/08/03 07:43:40;;;;;;;4.78;2.33;;;28.80;1.00;;;;;;5108928;28;20134;-46
2022/08/03 07:46:06;;;;;;;5.50;2.50;;;28.80;1.00;;;;;;5114139;28;20122;-47
2022/08/03 07:48:32;;;;;;;6.60;2.97;;;28.80;1.00;;;;;;5113341;28;20047;-45
2022/08/03 07:50:57;;;;;;;4.20;2.45;;;28.80;1.00;;;;;;5113034;28;20490;-46
2022/08/03 07:53:23;;;;;;;7.97;2.55;;;28.90;1.00;;;;;;5100592;28;20024;-46
2022/08/03 07:55:48;;;;;;;3.83;2.53;;;29.00;1.00;;;;;;5093288;28;20032;-46
2022/08/03 07:58:17;;;;;;;4.05;2.00;;;29.00;1.00;;;;;;5097788;28;20073;-45
2022/08/03 08:00:46;;;;;;;2.30;2.10;;;29.00;1.00;;;;;;5098656;28;20032;-44
2022/08/03 08:03:12;;;;;;;2.53;2.33;;;29.10;1.00;;;;;;5110215;28;20043;-44
2022/08/03 08:05:37;;;;;;;3.97;2.53;;;29.10;1.00;;;;;;5113882;28;20035;-46
2022/08/03 08:08:03;;;;;;;3.20;1.98;;;29.10;1.00;;;;;;5112253;28;20024;-44
2022/08/03 08:10:29;;;;;;;5.32;2.47;;;29.20;1.00;;;;;;5113417;28;20081;-45
2022/08/03 08:12:55;;;;;;;2.58;2.33;;;29.20;1.00;;;;;;5106181;28;20070;-45
2022/08/03 08:15:21;;;;;;;3.10;2.35;;;29.20;1.00;;;;;;5106718;28;20502;-45
2022/08/03 08:17:50;;;;;;;3.72;2.22;;;29.20;1.00;;;;;;5098199;28;20338;-44
2022/08/03 08:20:21;;;;;;;4.97;2.60;;;29.30;1.00;;;;;;5113378;28;20411;-47
2022/08/03 08:22:47;;;;;;;4.50;2.30;;;29.30;1.00;;;;;;5093277;28;20024;-45
2022/08/03 08:25:13;;;;;;;2.40;2.10;;;29.30;1.00;;;;;;5095049;28;20026;-47
2022/08/03 08:27:46;;;;;;;2.75;2.53;;;29.40;1.00;;;;;;5111585;28;20103;-44
2022/08/03 08:30:14;;;;;;;2.55;2.35;;;29.40;1.00;;;;;;5113272;28;20031;-45
2022/08/03 08:32:40;;;;;;;3.17;2.97;;;29.40;1.00;;;;;;5110477;28;20024;-49
2022/08/03 08:35:07;;;;;;;2.58;2.33;;;29.50;1.00;;;;;;5112282;28;20122;-45
2022/08/03 08:37:33;;;;;;;6.50;2.10;;;29.50;1.00;;;;;;5109351;28;20016;-45
2022/08/03 08:39:59;;;;;;;2.25;2.03;;;29.50;1.00;;;;;;5112898;28;20027;-45
2022/08/03 08:42:24;;;;;;;4.80;2.53;;;29.60;1.00;;;;;;5111335;28;20417;-45
2022/08/03 08:44:50;;;;;;;2.33;2.13;;;29.60;1.00;;;;;;5110286;28;20052;-45
2022/08/03 08:47:18;;;;;;;4.43;1.98;;;29.60;1.00;;;;;;5094136;28;20031;-45
2022/08/03 08:49:47;;;;;;;4.43;2.45;;;29.60;1.00;;;;;;5112712;28;20038;-44
2022/08/03 08:52:13;;;;;;;3.35;2.95;;;29.60;1.00;;;;;;5112889;28;20030;-45
2022/08/03 08:54:43;;;;;;;2.95;2.42;;;29.60;1.00;;;;;;5107468;28;20021;-45
2022/08/03 08:57:10;;;;;;;2.45;2.20;;;29.70;1.00;;;;;;5112796;28;20490;-44
2022/08/03 08:59:36;;;;;;;2.88;2.10;;;29.80;1.00;;;;;;5111884;28;20073;-46
2022/08/03 09:02:01;;;;;;;2.03;1.88;;;29.80;1.00;;;;;;5112414;28;20118;-45
2022/08/03 09:04:28;;;;;;;2.90;2.00;;;29.80;1.00;;;;;;5104857;28;20036;-47
2022/08/03 09:06:54;;;;;;;3.28;2.33;;;29.90;1.00;;;;;;5112056;28;20035;-47
2022/08/03 09:09:19;;;;;;;2.45;1.92;;;29.90;1.00;;;;;;5104418;28;20485;-45
2022/08/03 09:11:47;;;;;;;3.13;2.20;;;29.90;1.00;;;;;;5112527;28;20084;-45
2022/08/03 09:14:13;;;;;;;3.08;2.85;;;30.00;1.00;;;;;;5103475;28;20028;-45
2022/08/03 09:17:01;;;;;;;3.30;2.50;;;30.10;1.00;;;;;;5112443;28;20130;-45
2022/08/03 09:19:28;;;;;;;3.28;2.20;;;30.20;1.00;;;;;;5099889;28;20110;-46
2022/08/03 09:22:17;;;;;;;5.78;2.40;;;30.10;1.00;;;;;;5112356;28;20433;-45
2022/08/03 09:24:57;;;;;;;4.45;2.88;;;30.00;1.00;;;;;;5083959;28;20037;-46
2022/08/03 09:27:23;;;;;;;3.97;2.60;;;30.10;1.00;;;;;;5112298;28;20039;-45
2022/08/03 09:29:51;;;;;;;3.30;2.65;;;30.20;1.00;;;;;;5101671;28;20466;-46
2022/08/03 09:32:23;;;;;;;4.00;2.65;;;30.30;1.00;;;;;;5112033;28;20366;-47
2022/08/03 09:34:51;;;;;;;4.03;2.60;;;30.30;1.00;;;;;;5111261;28;20035;-47
2022/08/03 09:37:18;;;;;;;3.20;3.00;;;30.30;1.00;;;;;;5107692;28;20028;-45
2022/08/03 09:39:46;;;;;;;3.05;2.75;;;30.30;1.00;;;;;;5101860;28;20103;-45
2022/08/03 09:42:17;;;;;;;3.03;2.20;;;30.30;1.00;;;;;;5111951;28;20400;-45
2022/08/03 09:44:48;;;;;;;4.05;2.55;;;30.30;1.00;;;;;;5101187;28;20051;-45
2022/08/03 09:47:26;;;;;;;4.82;2.55;;;30.40;1.00;;;;;;5112334;28;20024;-46
2022/08/03 09:50:06;;;;;;;2.10;2.00;;;30.50;1.00;;;;;;5108538;28;20049;-44
2022/08/03 09:52:37;;;;;;;2.38;2.15;;;30.50;1.00;;;;;;5112123;28;20036;-47
2022/08/03 09:55:11;;;;;;;4.03;2.25;;;30.40;1.00;;;;;;5098701;28;20092;-44
2022/08/03 09:57:39;;;;;;;5.18;2.40;;;30.50;1.00;;;;;;5114367;28;20020;-44
2022/08/03 10:00:09;;;;;;;2.50;2.30;;;30.50;1.00;;;;;;5114211;28;20036;-45
2022/08/03 10:02:36;;;;;;;2.83;1.90;;;30.50;1.00;;;;;;5116221;28;20493;-46
2022/08/03 10:05:02;;;;;;;2.28;2.15;;;30.60;1.00;;;;;;5096680;28;20063;-46
2022/08/03 10:07:28;;;;;;;5.15;2.08;;;30.70;1.00;;;;;;5116131;28;20019;-45
2022/08/03 10:09:59;;;;;;;2.75;1.80;;;30.80;1.00;;;;;;5112451;28;20031;-47
2022/08/03 10:12:25;;;;;;;2.40;2.20;;;30.80;1.00;;;;;;5116065;28;20008;-45
2022/08/03 10:14:52;;;;;;;3.15;1.88;;;30.90;1.00;;;;;;5115307;28;20031;-46
2022/08/03 10:17:19;;;;;;;2.10;2.00;;;30.90;1.00;;;;;;5115744;28;20051;-45
2022/08/03 10:19:46;;;;;;;2.83;2.05;;;31.00;1.00;;;;;;5108226;28;20024;-47
2022/08/03 10:22:28;;;;;;;2.00;1.90;;;30.90;1.00;;;;;;5115814;28;20490;-50
2022/08/03 10:25:07;;;;;;;2.60;2.28;;;30.90;1.00;;;;;;5110311;28;20042;-46
2022/08/03 10:27:38;;;;;;;3.85;2.30;;;31.00;1.00;;;;;;5115720;28;20019;-45
2022/08/03 10:30:09;;;;;;;1.90;1.80;;;31.10;1.00;;;;;;5114858;28;20028;-45
2022/08/03 10:32:53;;;;;;;3.03;1.77;;;31.20;1.00;;;;;;5115636;28;20015;-45
2022/08/03 10:35:20;;;;;;;3.20;2.10;;;31.20;1.00;;;;;;5086236;28;20122;-45
2022/08/03 10:37:58;;;;;;;2.92;2.03;;;31.20;1.00;;;;;;5115498;28;20028;-45
2022/08/03 10:40:27;;;;;;;2.70;2.50;;;31.30;1.00;;;;;;5101999;28;20031;-49
2022/08/03 10:42:55;;;;;;;4.85;2.53;;;31.30;1.00;;;;;;5115078;28;20054;-45
2022/08/03 10:45:26;;;;;;;2.50;2.30;;;31.40;1.00;;;;;;5107891;28;20088;-46
2022/08/03 10:47:54;;;;;;;1.85;1.75;;;31.30;1.00;;;;;;5115279;28;20046;-45
2022/08/03 10:50:22;;;;;;;3.47;2.42;;;31.40;1.00;;;;;;5107392;28;20028;-45
2022/08/03 10:53:07;;;;;;;2.78;1.75;;;31.60;1.00;;;;;;5115085;28;20047;-45
2022/08/03 10:58:36;;;;;;;2.00;1.90;;;31.70;1.00;;;;;;5103322;28;20070;-46
2022/08/03 11:01:06;;;;;;;1.92;1.80;;;31.60;1.00;;;;;;5102564;28;20061;-49
2022/08/03 11:03:32;;;;;;;1.55;1.55;;;31.80;1.00;;;;;;5098161;28;20100;-46
2022/08/03 11:06:19;;;;;;;2.67;1.70;;;31.80;1.00;;;;;;5103214;28;20050;-48
2022/08/03 11:08:46;;;;;;;2.00;1.90;;;32.10;1.00;;;;;;5097909;28;20077;-46
2022/08/03 11:11:17;;;;;;;3.95;1.90;;;32.20;1.00;;;;;;5094986;28;20021;-46
2022/08/03 11:14:09;;;;;;;1.80;1.70;;;32.10;1.00;;;;;;5102110;28;20027;-45
2022/08/03 11:16:40;;;;;;;3.25;2.00;;;32.10;1.00;;;;;;5096327;28;20043;-45
2022/08/03 11:19:09;;;;;;;2.13;1.77;;;32.10;1.00;;;;;;5104110;28;20372;-46
2022/08/03 11:21:49;;;;;;;2.00;1.90;;;32.30;1.00;;;;;;5114697;28;20024;-45
2022/08/03 11:24:42;;;;;;;1.88;1.77;;;32.40;1.00;;;;;;5100842;28;20040;-45
2022/08/03 11:27:16;;;;;;;2.05;1.88;;;32.40;1.00;;;;;;5114826;28;20478;-45
2022/08/03 11:30:02;;;;;;;4.30;2.72;;;32.40;1.00;;;;;;5113678;28;20107;-45
2022/08/03 11:32:37;;;;;;;2.90;2.22;;;32.70;1.00;;;;;;5113559;28;20023;-47
2022/08/03 11:35:10;;;;;;;2.17;2.08;;;32.70;1.00;;;;;;5104008;28;20035;-45
2022/08/03 11:37:56;;;;;;;2.25;1.95;;;32.90;1.00;;;;;;5114493;28;20053;-47
2022/08/03 11:40:48;;;;;;;3.85;3.53;;;32.90;1.00;;;;;;5109779;28;20090;-45
2022/08/03 11:43:29;;;;;;;5.82;2.40;;;33.20;1.00;;;;;;5105357;28;20052;-45
2022/08/03 11:46:05;;;;;;;3.05;2.17;;;33.20;1.00;;;;;;5085841;28;20031;-48
2022/08/03 11:48:44;;;;;;;2.83;2.60;;;33.40;1.00;;;;;;5113120;28;20457;-45
2022/08/03 11:51:25;;;;;;;2.95;2.38;;;34.10;1.00;;;;;;5104936;28;20023;-45
2022/08/03 11:53:57;;;;;;;2.47;2.33;;;34.30;1.00;;;;;;5110863;28;20034;-48
2022/08/03 11:56:24;;;;;;;3.15;2.47;;;34.90;1.00;;;;;;5105762;28;20067;-49
2022/08/03 11:58:55;;;;;;;2.88;2.65;;;35.40;1.00;;;;;;5113358;28;20428;-48
2022/08/03 12:01:22;;;;;;;2.67;2.47;;;36.00;1.00;;;;;;5113960;28;20054;-45
2022/08/03 12:03:49;;;;;;;3.13;2.92;;;36.60;1.00;;;;;;5109953;28;22464;-46
2022/08/03 12:06:16;;;;;;;3.28;3.00;;;37.20;1.00;;;;;;5102751;28;20031;-45
2022/08/03 12:08:43;;;;;;;3.35;2.90;;;37.60;1.00;;;;;;5111940;28;20407;-48
2022/08/03 12:11:11;;;;;;;2.65;2.55;;;39.30;1.00;;;;;;5101130;28;20016;-45
2022/08/03 12:13:46;;;;;;;2.80;2.70;;;40.00;1.00;;;;;;5094369;28;20090;-46
2022/08/03 12:16:23;;;;;;;2.92;2.72;;;40.10;1.00;;;;;;5100404;28;20039;-45
2022/08/03 12:19:15;;;;;;;3.75;3.45;;;41.70;1.00;;;;;;5111510;28;20125;-47
2022/08/03 12:21:50;;;;;;;3.70;3.40;;;43.10;1.00;;;;;;5091554;28;20365;-46
2022/08/03 12:24:16;;;;;;;3.83;3.28;;;44.90;1.00;;;;;;5112472;28;20116;-49
2022/08/03 12:26:47;;;;;;;4.40;4.03;;;46.50;1.00;;;;;;5113757;28;20028;-49
2022/08/03 12:29:20;;;;;;;4.30;3.85;;;47.00;99.90;;;;;;5108527;28;20377;-46
2022/08/03 12:31:47;;;;;;;3.60;3.40;;;46.70;99.90;;;;;;5111146;28;20030;-44
2022/08/03 12:34:12;;;;;;;3.78;3.55;;;46.20;1.00;;;;;;5103134;28;20016;-46
2022/08/03 12:36:54;;;;;;;4.18;3.88;;;44.80;1.00;;;;;;5113179;28;20099;-44
2022/08/03 12:39:26;;;;;;;4.55;4.25;;;44.80;1.00;;;;;;5107012;28;20133;-43
2022/08/03 12:41:53;;;;;;;4.35;4.13;;;43.90;1.00;;;;;;5105745;28;20062;-45
2022/08/03 12:44:32;;;;;;;4.55;4.25;;;43.40;1.00;;;;;;5112250;28;20023;-47
2022/08/03 12:46:58;;;;;;;5.18;4.82;;;43.20;1.00;;;;;;5112950;28;20495;-44
2022/08/03 12:49:24;;;;;;;5.20;4.90;;;43.10;1.00;;;;;;5106605;28;20450;-45
2022/08/03 12:51:50;;;;;;;5.90;5.28;;;42.80;1.00;;;;;;5110189;28;20077;-44
2022/08/03 12:54:18;;;;;;;5.57;5.07;;;41.90;1.00;;;;;;5107942;28;20378;-44
2022/08/03 12:57:02;;;;;;;5.60;5.15;;;41.00;1.00;;;;;;5108141;28;20050;-44
2022/08/03 12:59:30;;;;;;;5.85;5.50;;;40.90;1.00;;;;;;5106345;28;20543;-45
2022/08/03 13:01:56;;;;;;;5.25;5.00;;;40.60;1.00;;;;;;5109150;28;20119;-47
2022/08/03 13:04:26;;;;;;;6.07;5.68;;;40.90;1.00;;;;;;5111918;28;20111;-45
2022/08/03 13:07:06;;;;;;;5.70;5.40;;;41.40;1.00;;;;;;5108600;28;20067;-43
2022/08/03 13:09:49;;;;;;;6.22;5.78;;;41.40;1.00;;;;;;5106069;28;20020;-46
2022/08/03 13:12:18;;;;;;;6.35;5.80;;;42.00;1.00;;;;;;5109966;28;20027;-44
2022/08/03 13:14:48;;;;;;;6.78;6.30;;;43.40;1.00;;;;;;5104061;28;20056;-44
2022/08/03 13:17:15;;;;;;;5.88;5.57;;;45.20;1.00;;;;;;5108818;28;20431;-44
2022/08/03 13:19:41;;;;;;;5.95;5.43;;;47.40;99.90;;;;;;5111605;28;20024;-45